Aérodrome :
LOGIN :

S'inscrire | Disclaimer

   EN    FR    IT 

 










Légende :    VFR   VFR Marginal   IFR   IFR Intensif   IFR Très Intensif
Visi : 
Plafond : 
>= 8 km
>= 3000ft
5 à 8 km
1000 à 3000 ft
1500m à 5 km
500 à 1000 ft
800 à 1500m
200 à 500 ft
< 800m
< 200 ft
Symboles :   Orages  Brouillard  Fortes neiges  Fortes précipitations  Vent > 20 kt
SIGMETs :   Divers  Orages  Givrage  Turbulence  Onde Orograph.  Cendres Volcan.






- Altitude de l'aérodrome : 1475 ft


LSZC - Buochs Stans

DERNIER METAR :
  • 130850Z AUTO 26003KT 9999 BKN022 15/14 Q1016

METARs EXPIRÉS :
  • 130820Z AUTO VRB02KT 9999 FEW024 OVC027 OVC030 16/14 Q1016
  • 130750Z AUTO 35003KT 310V030 9999 SCT017 BKN019 BKN023 15/14 Q1016
  • 130720Z AUTO VRB01KT 9999 BKN016 OVC018 15/14 Q1016
  • 130650Z AUTO VRB01KT 9999 -DZ FEW010 BKN017 BKN019 15/14 Q1016
  • 130620Z AUTO VRB02KT 9999 FEW007 SCT009 OVC028 15/14 Q1016 REDZ
  • 130550Z AUTO VRB01KT 8000 -DZ BKN013 BKN015 BKN043 14/14 Q1016 RERA
  • 130520Z AUTO 21003KT 3800 -RA FEW006 OVC011 14/14 Q1016
  • 130450Z AUTO 21004KT 170V260 5000 RA FEW012 BKN021 OVC024 15/14 Q1015
  • 130420Z AUTO VRB06KT 4400 +RA BR BKN021 BKN024 15/13 Q1015

Prévision TAF périmée.



MET'MAP, la Météo Aéronautique d'un coup d'oeil ! - Copyright ORBIFLY Décembre 2007 - Disclaimer

ORBIFLY MET'MAP TEAM :

Programmation & Développement : Alexandra Zaïnal
Sur une idée originale de : Baudouin d'Aumeries
Soutien technique & logistique : Manuel Goepfert
Assistance : Marc-Olivier Méhu




SOURCES & CREDITS :

   NOAA